createdAt,value
2022-07-30T00:00:38.940Z,968.2500
2022-07-30T00:01:41.385Z,968.2500
2022-07-30T00:02:41.484Z,968.2300
2022-07-30T00:03:43.897Z,968.2300
2022-07-30T00:04:46.156Z,968.2100
2022-07-30T00:05:48.443Z,968.1900
2022-07-30T00:06:50.817Z,968.2300
2022-07-30T00:07:53.136Z,968.2300
2022-07-30T00:08:53.366Z,968.2500
2022-07-30T00:09:55.733Z,968.2700
2022-07-30T00:10:58.106Z,968.2700
2022-07-30T00:12:00.473Z,968.2700
2022-07-30T00:13:00.645Z,968.2700
2022-07-30T00:14:02.995Z,968.2500
2022-07-30T00:15:05.338Z,968.2500
2022-07-30T00:16:07.687Z,968.2500
2022-07-30T00:17:10.123Z,968.2500
2022-07-30T00:18:10.219Z,968.2900
2022-07-30T00:19:12.526Z,968.2900
2022-07-30T00:20:14.817Z,968.2700
2022-07-30T00:21:20.228Z,968.2700
2022-07-30T00:22:17.374Z,968.2700
2022-07-30T00:23:19.631Z,968.2700
2022-07-30T00:24:21.912Z,968.2700
2022-07-30T00:25:24.264Z,968.2900
2022-07-30T00:26:26.589Z,968.2900
2022-07-30T00:27:28.957Z,968.2900
2022-07-30T00:28:29.096Z,968.2900
2022-07-30T00:29:31.418Z,968.3000
2022-07-30T00:30:33.781Z,968.3000
2022-07-30T00:31:36.068Z,968.3200
2022-07-30T00:32:38.433Z,968.3200
2022-07-30T00:33:40.728Z,968.3000
2022-07-30T00:34:40.904Z,968.3000
2022-07-30T00:35:43.235Z,968.3400
2022-07-30T00:36:45.572Z,968.3200
2022-07-30T00:37:47.935Z,968.3200
2022-07-30T00:38:50.256Z,968.3200
2022-07-30T00:39:50.444Z,968.3000
2022-07-30T00:40:52.779Z,968.3200
2022-07-30T00:41:55.075Z,968.3000
2022-07-30T00:44:12.668Z,968.2500
2022-07-30T00:45:14.816Z,968.2900
2022-07-30T00:46:17.110Z,968.2700
2022-07-30T00:47:19.342Z,968.2900
2022-07-30T00:48:19.497Z,968.2700
2022-07-30T00:49:21.887Z,968.2500
2022-07-30T00:50:24.183Z,968.2700
2022-07-30T00:51:26.533Z,968.2700
2022-07-30T00:52:28.879Z,968.2500
2022-07-30T00:53:31.174Z,968.3000
2022-07-30T00:54:31.409Z,968.3000
2022-07-30T00:55:33.688Z,968.2900
2022-07-30T00:56:36.013Z,968.2900
2022-07-30T00:57:39.338Z,968.2900
2022-07-30T00:58:40.662Z,968.3000
2022-07-30T00:59:40.888Z,968.2900
2022-07-30T01:00:43.200Z,968.3000
2022-07-30T01:01:45.562Z,968.3200
2022-07-30T01:02:47.837Z,968.3000
2022-07-30T01:03:50.212Z,968.3400
2022-07-30T01:04:52.747Z,968.3400
2022-07-30T01:05:52.781Z,968.3400
2022-07-30T01:06:55.056Z,968.3800
2022-07-30T01:07:57.366Z,968.3600
2022-07-30T01:08:59.708Z,968.3800
2022-07-30T01:09:59.923Z,968.3400
2022-07-30T01:11:02.209Z,968.3400
2022-07-30T01:12:04.549Z,968.3400
2022-07-30T01:13:04.739Z,968.3600
2022-07-30T01:14:07.085Z,968.3400
2022-07-30T01:15:07.313Z,968.3200
2022-07-30T01:16:09.684Z,968.3400
2022-07-30T01:17:11.982Z,968.3400
2022-07-30T01:18:14.345Z,968.3200
2022-07-30T01:19:16.699Z,968.3400
2022-07-30T01:20:16.938Z,968.3200
2022-07-30T01:21:19.265Z,968.3800
2022-07-30T01:22:21.612Z,968.3800
2022-07-30T01:23:23.929Z,968.3800
2022-07-30T01:24:24.103Z,968.3400
2022-07-30T01:25:26.503Z,968.3800
2022-07-30T01:26:28.722Z,968.3200
2022-07-30T01:27:31.031Z,968.3600
2022-07-30T01:28:33.314Z,968.3600
2022-07-30T01:29:35.559Z,968.3400
2022-07-30T01:30:35.738Z,968.3400
2022-07-30T01:31:38.006Z,968.3600
2022-07-30T01:32:40.204Z,968.3400
2022-07-30T01:33:42.486Z,968.3200
2022-07-30T01:34:44.807Z,968.3400
2022-07-30T01:35:47.151Z,968.3200
2022-07-30T01:36:49.452Z,968.3400
2022-07-30T01:37:49.621Z,968.3200
2022-07-30T01:38:51.951Z,968.3000
2022-07-30T01:39:54.291Z,968.3000
2022-07-30T01:40:56.683Z,968.3200
2022-07-30T01:41:58.983Z,968.2700
2022-07-30T01:42:59.152Z,968.3000
2022-07-30T01:44:01.439Z,968.3200
2022-07-30T01:45:03.756Z,968.3200
2022-07-30T01:46:06.218Z,968.3600
2022-07-30T01:47:08.365Z,968.3600
2022-07-30T01:48:10.639Z,968.3600
2022-07-30T01:49:13.041Z,968.3600
2022-07-30T01:50:13.133Z,968.3400
2022-07-30T01:51:15.477Z,968.3400
2022-07-30T01:52:17.735Z,968.3600
2022-07-30T01:53:20.070Z,968.3800
2022-07-30T01:54:22.394Z,968.3800
2022-07-30T01:55:24.739Z,968.3600
2022-07-30T01:56:25.179Z,968.3600
2022-07-30T01:57:27.243Z,968.3400
2022-07-30T01:58:29.625Z,968.3800
2022-07-30T01:59:32.041Z,968.3600
2022-07-30T02:00:32.279Z,968.3400
2022-07-30T02:01:34.644Z,968.3400
2022-07-30T02:02:36.931Z,968.3400
2022-07-30T02:03:28.189Z,968.3600
2022-07-30T02:04:30.959Z,968.3400
2022-07-30T02:05:33.289Z,968.3600
2022-07-30T02:06:33.485Z,968.3800
2022-07-30T02:07:35.824Z,968.3400
2022-07-30T02:08:38.127Z,968.3600
2022-07-30T02:09:44.397Z,968.3600
2022-07-30T02:10:42.826Z,968.3600
2022-07-30T02:11:43.006Z,968.3400
2022-07-30T02:12:45.359Z,968.3200
2022-07-30T02:13:47.626Z,968.3200
2022-07-30T02:14:47.795Z,968.3200
2022-07-30T02:15:50.063Z,968.3200
2022-07-30T02:16:52.374Z,968.3000
2022-07-30T02:17:54.710Z,968.3400
2022-07-30T02:18:57.049Z,968.3000
2022-07-30T02:19:59.289Z,968.2900
2022-07-30T02:21:01.618Z,968.2900
2022-07-30T02:22:03.927Z,968.2500
2022-07-30T02:23:06.245Z,968.2300
2022-07-30T02:24:08.498Z,968.2300
2022-07-30T02:25:10.755Z,968.2300
2022-07-30T02:26:10.903Z,968.2100
2022-07-30T02:27:13.267Z,968.2100
2022-07-30T02:28:15.676Z,968.2100
2022-07-30T02:29:17.999Z,968.1700
2022-07-30T02:30:18.217Z,968.1700
2022-07-30T02:31:20.643Z,968.1900
2022-07-30T02:32:22.934Z,968.2300
2022-07-30T02:33:25.343Z,968.1700
2022-07-30T02:34:27.661Z,968.2300
2022-07-30T02:35:27.835Z,968.2100
2022-07-30T02:36:30.190Z,968.2300
2022-07-30T02:37:42.978Z,968.2100
2022-07-30T02:38:34.957Z,968.2100
2022-07-30T02:39:37.312Z,968.2300
2022-07-30T02:40:37.511Z,968.2100
2022-07-30T02:41:39.855Z,968.1900
2022-07-30T02:42:42.197Z,968.2100
2022-07-30T02:43:44.573Z,968.2300
2022-07-30T02:44:46.868Z,968.2300
2022-07-30T02:45:47.037Z,968.2300
2022-07-30T02:46:49.443Z,968.2500
2022-07-30T02:47:51.570Z,968.2300
2022-07-30T02:48:53.923Z,968.2500
2022-07-30T02:49:56.161Z,968.2300
2022-07-30T02:50:58.432Z,968.2500
2022-07-30T02:51:58.633Z,968.2700
2022-07-30T02:53:00.967Z,968.2500
2022-07-30T02:54:03.613Z,968.2700
2022-07-30T02:55:05.591Z,968.2700
2022-07-30T02:56:07.909Z,968.2700
2022-07-30T02:57:08.085Z,968.2900
2022-07-30T02:58:10.376Z,968.2500
2022-07-30T02:59:12.710Z,968.2900
2022-07-30T03:00:14.975Z,968.2700
2022-07-30T03:01:17.355Z,968.3000
2022-07-30T03:02:25.896Z,968.3200
2022-07-30T03:03:21.888Z,968.3000
2022-07-30T03:04:22.038Z,968.3200
2022-07-30T03:05:24.308Z,968.3000
2022-07-30T03:06:26.655Z,968.3000
2022-07-30T03:07:28.962Z,968.3200
2022-07-30T03:10:03.869Z,968.3000
2022-07-30T03:11:06.130Z,968.3000
2022-07-30T03:12:06.302Z,968.3400
2022-07-30T03:13:08.657Z,968.3400
2022-07-30T03:14:10.939Z,968.3400
2022-07-30T03:15:13.257Z,968.3600
2022-07-30T03:16:15.634Z,968.3600
2022-07-30T03:17:17.852Z,968.3800
2022-07-30T03:18:18.030Z,968.3800
2022-07-30T03:19:20.396Z,968.4200
2022-07-30T03:20:22.754Z,968.4000
2022-07-30T03:21:25.060Z,968.4200
2022-07-30T03:22:32.606Z,968.4000
2022-07-30T03:23:27.551Z,968.4400
2022-07-30T03:24:29.863Z,968.4400
2022-07-30T03:26:41.149Z,968.5200
2022-07-30T03:27:43.361Z,968.5400
2022-07-30T03:28:45.717Z,968.5800
2022-07-30T03:29:48.091Z,968.6000
2022-07-30T03:30:50.458Z,968.6200
2022-07-30T03:31:50.776Z,968.6200
2022-07-30T03:32:52.961Z,968.6200
2022-07-30T03:33:55.323Z,968.6200
2022-07-30T03:34:57.673Z,968.6400
2022-07-30T03:35:59.992Z,968.6400
2022-07-30T03:37:02.803Z,968.6600
2022-07-30T03:38:02.488Z,968.6400
2022-07-30T03:39:04.796Z,968.6600
2022-07-30T03:40:07.159Z,968.6800
2022-07-30T03:41:09.468Z,968.6800
2022-07-30T03:42:11.805Z,968.7200
2022-07-30T03:43:32.750Z,968.7400
2022-07-30T03:44:14.283Z,968.7400
2022-07-30T03:45:16.668Z,968.7200
2022-07-30T03:46:19.139Z,968.7200
2022-07-30T03:47:21.516Z,968.6600
2022-07-30T03:48:21.745Z,968.7000
2022-07-30T03:49:24.170Z,968.7000
2022-07-30T03:50:26.397Z,968.7200
2022-07-30T03:51:32.982Z,968.7600
2022-07-30T03:52:31.108Z,968.7700
2022-07-30T03:53:31.240Z,968.7700
2022-07-30T03:54:33.597Z,968.7700
2022-07-30T03:55:35.956Z,968.7900
2022-07-30T03:56:38.267Z,968.7900
2022-07-30T03:57:40.594Z,968.8100
2022-07-30T03:58:42.939Z,968.7700
2022-07-30T03:59:43.180Z,968.7900
2022-07-30T04:00:45.549Z,968.8100
2022-07-30T04:01:47.998Z,968.7900
2022-07-30T04:02:48.149Z,968.7600
2022-07-30T04:03:50.400Z,968.7700
2022-07-30T04:04:52.658Z,968.7600
2022-07-30T04:05:54.988Z,968.8100
2022-07-30T04:06:57.322Z,968.7700
2022-07-30T04:07:59.672Z,968.7700
2022-07-30T04:09:01.921Z,968.7600
2022-07-30T04:10:02.070Z,968.7600
2022-07-30T04:11:04.393Z,968.7900
2022-07-30T04:12:06.741Z,968.7700
2022-07-30T04:13:09.706Z,968.7900
2022-07-30T04:14:11.442Z,968.7700
2022-07-30T04:16:39.879Z,968.8100
2022-07-30T04:16:40.583Z,968.8100
2022-07-30T04:17:16.422Z,968.8100
2022-07-30T04:18:18.747Z,968.7900
2022-07-30T04:19:21.097Z,968.8100
2022-07-30T04:20:21.300Z,968.8300
2022-07-30T04:21:23.645Z,968.8300
2022-07-30T04:22:25.982Z,968.8300
2022-07-30T04:23:28.336Z,968.8500
2022-07-30T04:24:30.595Z,968.8500
2022-07-30T04:25:30.723Z,968.8500
2022-07-30T04:26:33.075Z,968.8700
2022-07-30T04:27:35.391Z,968.8700
2022-07-30T04:28:37.731Z,968.8900
2022-07-30T04:29:40.056Z,968.8900
2022-07-30T04:30:42.406Z,968.9100
2022-07-30T04:31:42.692Z,968.9300
2022-07-30T04:32:44.961Z,968.9300
2022-07-30T04:33:47.376Z,968.9700
2022-07-30T04:34:49.728Z,968.9300
2022-07-30T04:35:52.528Z,968.9700
2022-07-30T04:36:52.269Z,968.9900
2022-07-30T04:37:54.619Z,969.0100
2022-07-30T04:38:56.972Z,969.0500
2022-07-30T04:39:59.271Z,969.0300
2022-07-30T04:40:59.460Z,969.0700
2022-07-30T04:42:01.822Z,969.0700
2022-07-30T04:43:04.124Z,969.0700
2022-07-30T04:44:06.493Z,969.1100
2022-07-30T04:45:08.808Z,969.1100
2022-07-30T04:46:09.104Z,969.1300
2022-07-30T04:47:11.267Z,969.1500
2022-07-30T04:48:13.601Z,969.1900
2022-07-30T04:49:16.028Z,969.1700
2022-07-30T04:50:18.295Z,969.2100
2022-07-30T04:51:20.629Z,969.2300
2022-07-30T04:52:20.779Z,969.2300
2022-07-30T04:53:23.102Z,969.2400
2022-07-30T04:54:25.464Z,969.2400
2022-07-30T04:55:27.703Z,969.2400
2022-07-30T04:56:30.021Z,969.3000
2022-07-30T04:57:32.319Z,969.2800
2022-07-30T04:58:32.417Z,969.2800
2022-07-30T04:59:34.713Z,969.3200
2022-07-30T05:00:40.958Z,969.3400
2022-07-30T05:01:40.894Z,969.3200
2022-07-30T05:02:41.458Z,969.3200
2022-07-30T05:03:43.706Z,969.3400
2022-07-30T05:04:45.996Z,969.3400
2022-07-30T05:05:48.261Z,969.3200
2022-07-30T05:06:50.529Z,969.3400
2022-07-30T05:07:50.627Z,969.3000
2022-07-30T05:08:52.888Z,969.3400
2022-07-30T05:09:55.194Z,969.3600
2022-07-30T05:10:57.470Z,969.3600
2022-07-30T05:11:59.774Z,969.3800
2022-07-30T05:13:02.044Z,969.4000
2022-07-30T05:14:04.325Z,969.3800
2022-07-30T05:15:04.476Z,969.3600
2022-07-30T05:16:06.867Z,969.3800
2022-07-30T05:17:09.039Z,969.4000
2022-07-30T05:18:11.346Z,969.4000
2022-07-30T05:19:13.651Z,969.4000
2022-07-30T05:20:15.973Z,969.4200
2022-07-30T05:21:18.217Z,969.4000
2022-07-30T05:22:18.360Z,969.4400
2022-07-30T05:23:20.661Z,969.4400
2022-07-30T05:24:22.962Z,969.4600
2022-07-30T05:25:25.308Z,969.4800
2022-07-30T05:26:28.058Z,969.4600
2022-07-30T05:27:29.893Z,969.4600
2022-07-30T05:28:30.037Z,969.4800
2022-07-30T05:29:32.319Z,969.4800
2022-07-30T05:30:34.657Z,969.4800
2022-07-30T05:31:38.118Z,969.4800
2022-07-30T05:32:39.190Z,969.4800
2022-07-30T05:33:42.853Z,969.4800
2022-07-30T05:34:43.721Z,969.4800
2022-07-30T05:35:46.031Z,969.4600
2022-07-30T05:36:46.219Z,969.4600
2022-07-30T05:37:48.450Z,969.4800
2022-07-30T05:38:50.676Z,969.4400
2022-07-30T05:40:02.444Z,969.4800
2022-07-30T05:40:55.281Z,969.4800
2022-07-30T05:41:57.553Z,969.5000
2022-07-30T05:42:59.859Z,969.4600
2022-07-30T05:44:00.008Z,969.4800
2022-07-30T05:45:02.293Z,969.4800
2022-07-30T05:46:04.716Z,969.4800
2022-07-30T05:47:06.850Z,969.5000
2022-07-30T05:48:09.156Z,969.4800
2022-07-30T05:49:11.579Z,969.5000
2022-07-30T05:50:11.646Z,969.4800
2022-07-30T05:51:13.996Z,969.4800
2022-07-30T05:52:16.258Z,969.4600
2022-07-30T05:53:18.552Z,969.4600
2022-07-30T05:54:20.849Z,969.4800
2022-07-30T05:55:23.170Z,969.4800
2022-07-30T05:56:23.375Z,969.4600
2022-07-30T05:57:25.617Z,969.4800
2022-07-30T05:58:27.872Z,969.4800
2022-07-30T05:59:30.178Z,969.5000
2022-07-30T06:00:32.497Z,969.5200
2022-07-30T06:01:34.914Z,969.5200
2022-07-30T06:02:37.120Z,969.5000
2022-07-30T06:03:37.292Z,969.4800
2022-07-30T06:04:39.685Z,969.5400
2022-07-30T06:05:41.921Z,969.6200
2022-07-30T06:06:44.269Z,969.6200
2022-07-30T06:07:46.569Z,969.5200
2022-07-30T06:08:46.777Z,969.6200
2022-07-30T06:09:49.143Z,969.6600
2022-07-30T06:10:51.506Z,969.6400
2022-07-30T06:11:53.869Z,969.6600
2022-07-30T06:12:56.182Z,969.6600
2022-07-30T06:13:56.385Z,969.6800
2022-07-30T06:14:58.739Z,969.6800
2022-07-30T06:16:01.151Z,969.7000
2022-07-30T06:17:03.733Z,969.7000
2022-07-30T06:18:05.750Z,969.6800
2022-07-30T06:19:08.074Z,969.7200
2022-07-30T06:20:08.281Z,969.7200
2022-07-30T06:21:10.598Z,969.7000
2022-07-30T06:22:12.908Z,969.6600
2022-07-30T06:23:15.237Z,969.6800
2022-07-30T06:24:15.460Z,969.6800
2022-07-30T06:25:18.547Z,969.7000
2022-07-30T06:26:20.143Z,969.6800
2022-07-30T06:27:22.617Z,969.6800
2022-07-30T06:28:37.624Z,969.7000
2022-07-30T06:29:25.077Z,969.6800
2022-07-30T06:30:31.460Z,969.7200
2022-07-30T06:31:29.749Z,969.7200
2022-07-30T06:32:32.116Z,969.7400
2022-07-30T06:33:32.281Z,969.7600
2022-07-30T06:34:34.575Z,969.8000
2022-07-30T06:35:36.915Z,969.7600
2022-07-30T06:36:39.249Z,969.7400
2022-07-30T06:38:05.611Z,969.7600
2022-07-30T06:38:43.869Z,969.7800
2022-07-30T06:39:57.418Z,969.7600
2022-07-30T06:40:46.336Z,969.7400
2022-07-30T06:41:48.616Z,969.7600
2022-07-30T06:42:50.879Z,969.7600
2022-07-30T06:43:53.128Z,969.7600
2022-07-30T06:44:55.397Z,969.7600
2022-07-30T06:45:57.746Z,969.7400
2022-07-30T06:47:05.227Z,969.7400
2022-07-30T06:48:00.167Z,969.7600
2022-07-30T06:49:02.470Z,969.7800
2022-07-30T06:50:04.627Z,969.8000
2022-07-30T06:51:06.866Z,969.8200
2022-07-30T06:52:09.101Z,969.8000
2022-07-30T06:53:11.381Z,969.8500
2022-07-30T06:54:13.633Z,969.8500
2022-07-30T06:55:15.935Z,969.8700
2022-07-30T06:56:16.098Z,969.8900
2022-07-30T06:57:18.455Z,969.8900
2022-07-30T06:58:25.503Z,969.9100
2022-07-30T06:59:23.165Z,969.8900
2022-07-30T07:00:23.384Z,969.9100
2022-07-30T07:01:25.800Z,969.9100
2022-07-30T07:02:28.040Z,969.9300
2022-07-30T07:03:39.913Z,969.9100
2022-07-30T07:04:32.865Z,969.8900
2022-07-30T07:05:32.952Z,969.9100
2022-07-30T07:06:35.306Z,969.9300
2022-07-30T07:07:42.484Z,969.9300
2022-07-30T07:08:40.033Z,969.9500
2022-07-30T07:09:44.847Z,969.9700
2022-07-30T07:10:43.038Z,969.9700
2022-07-30T07:11:44.910Z,969.9700
2022-07-30T07:12:47.189Z,970.0100
2022-07-30T07:13:49.516Z,969.9700
2022-07-30T07:14:51.774Z,969.9700
2022-07-30T07:15:54.068Z,969.9900
2022-07-30T07:16:56.400Z,969.9900
2022-07-30T07:17:56.488Z,969.9500
2022-07-30T07:18:58.772Z,969.9300
2022-07-30T07:20:02.515Z,969.9700
2022-07-30T07:21:03.422Z,969.9300
2022-07-30T07:22:05.755Z,969.9300
2022-07-30T07:23:09.145Z,969.9300
2022-07-30T07:24:08.268Z,969.9100
2022-07-30T07:25:10.564Z,969.9100
2022-07-30T07:26:12.834Z,969.8900
2022-07-30T07:27:15.671Z,969.8700
2022-07-30T07:28:17.398Z,969.8700
2022-07-30T07:29:19.720Z,969.8500
2022-07-30T07:30:22.051Z,969.8900
2022-07-30T07:32:06.776Z,969.9100
2022-07-30T07:32:24.545Z,969.9100
2022-07-30T07:33:26.869Z,969.8900
2022-07-30T07:34:27.061Z,969.8900
2022-07-30T07:35:29.355Z,969.9100
2022-07-30T07:36:31.693Z,969.8900
2022-07-30T07:37:33.989Z,969.9100
2022-07-30T07:38:36.305Z,969.8900
2022-07-30T07:39:41.972Z,969.8900
2022-07-30T07:40:38.774Z,969.9100
2022-07-30T07:41:48.792Z,969.8900
2022-07-30T07:42:43.443Z,969.9100
2022-07-30T07:43:45.753Z,969.8900
2022-07-30T07:44:48.108Z,969.8900
2022-07-30T07:45:48.412Z,969.8900
2022-07-30T07:46:50.593Z,969.9100
2022-07-30T07:47:53.220Z,969.9100
2022-07-30T07:48:55.266Z,969.8700
2022-07-30T07:49:57.550Z,969.8900
2022-07-30T07:51:00.294Z,969.8900
2022-07-30T07:51:59.999Z,969.8500
2022-07-30T07:53:02.330Z,969.9100
2022-07-30T07:54:20.595Z,969.9300
2022-07-30T07:55:07.001Z,969.9100
2022-07-30T07:56:07.143Z,969.9100
2022-07-30T07:57:10.396Z,969.9100
2022-07-30T07:58:11.739Z,969.8900
2022-07-30T07:59:14.075Z,969.8900
2022-07-30T08:00:16.447Z,969.9300
2022-07-30T08:01:18.752Z,969.8700
2022-07-30T08:02:21.079Z,969.9100
2022-07-30T08:03:21.188Z,969.8900
2022-07-30T08:04:23.454Z,969.8900
2022-07-30T08:05:25.777Z,969.8500
2022-07-30T08:06:28.044Z,969.8700
2022-07-30T08:07:30.343Z,969.8400
2022-07-30T08:08:32.675Z,969.8500
2022-07-30T08:09:42.648Z,969.8900
2022-07-30T08:10:35.106Z,969.8700
2022-07-30T08:11:37.287Z,969.8900
2022-07-30T08:12:39.511Z,969.8900
2022-07-30T08:13:49.038Z,969.8700
2022-07-30T08:14:41.918Z,969.8500
2022-07-30T08:15:44.235Z,969.8500
2022-07-30T08:16:46.567Z,969.9100
2022-07-30T08:17:48.798Z,969.8700
2022-07-30T08:18:51.046Z,969.9100
2022-07-30T08:19:53.343Z,969.9100
2022-07-30T08:20:53.495Z,969.9300
2022-07-30T08:21:55.759Z,969.9100
2022-07-30T08:22:58.036Z,969.9300
2022-07-30T08:24:00.323Z,969.9100
2022-07-30T08:25:03.798Z,969.9300
2022-07-30T08:26:04.911Z,969.8900
2022-07-30T08:27:05.312Z,969.9100
2022-07-30T08:28:07.270Z,969.9300
2022-07-30T08:29:12.998Z,969.9100
2022-07-30T08:30:11.820Z,969.9300
2022-07-30T08:31:14.102Z,969.9300
2022-07-30T08:32:16.349Z,969.9500
2022-07-30T08:33:18.613Z,969.9300
2022-07-30T08:34:20.880Z,969.9500
2022-07-30T08:35:23.143Z,969.9500
2022-07-30T08:36:26.015Z,969.9700
2022-07-30T08:37:25.517Z,969.9300
2022-07-30T08:38:27.771Z,969.9300
2022-07-30T08:39:30.010Z,969.9500
2022-07-30T08:40:32.250Z,969.9700
2022-07-30T08:41:34.516Z,969.9700
2022-07-30T08:43:28.348Z,969.9500
2022-07-30T08:44:30.458Z,969.9300
2022-07-30T08:45:34.508Z,969.9500
2022-07-30T08:46:34.929Z,969.9100
2022-07-30T08:47:37.223Z,969.9300
2022-07-30T08:48:39.513Z,969.8900
2022-07-30T08:49:41.768Z,969.9300
2022-07-30T08:50:44.070Z,969.9300
2022-07-30T08:51:44.195Z,969.9100
2022-07-30T08:52:46.486Z,969.9300
2022-07-30T08:53:48.762Z,969.9100
2022-07-30T08:54:51.060Z,969.9100
2022-07-30T08:55:58.229Z,969.9300
2022-07-30T08:56:55.481Z,969.9100
2022-07-30T08:57:57.776Z,969.8900
2022-07-30T08:59:00.014Z,969.8900
2022-07-30T09:00:01.792Z,969.8700
2022-07-30T09:01:02.320Z,969.8700
2022-07-30T09:02:06.827Z,969.8700
2022-07-30T09:03:06.860Z,969.8500
2022-07-30T09:04:09.033Z,969.8900
2022-07-30T09:05:11.214Z,969.8700
2022-07-30T09:06:13.427Z,969.8400
2022-07-30T09:07:15.645Z,969.8500
2022-07-30T09:08:18.750Z,969.8700
2022-07-30T09:09:20.197Z,969.8700
2022-07-30T09:10:22.472Z,969.8500
2022-07-30T09:11:22.561Z,969.8500
2022-07-30T09:12:24.813Z,969.8400
2022-07-30T09:13:27.066Z,969.8200
2022-07-30T09:14:30.744Z,969.8400
2022-07-30T09:15:29.382Z,969.8400
2022-07-30T09:16:31.581Z,969.8400
2022-07-30T09:17:33.812Z,969.8400
2022-07-30T09:18:36.109Z,969.8200
2022-07-30T09:19:36.208Z,969.8000
2022-07-30T09:20:38.484Z,969.7800
2022-07-30T09:21:40.781Z,969.8000
2022-07-30T09:22:43.113Z,969.8000
2022-07-30T09:23:48.300Z,969.8000
2022-07-30T09:24:47.779Z,969.8000
2022-07-30T09:25:48.219Z,969.8200
2022-07-30T09:26:50.307Z,969.8200
2022-07-30T09:27:52.654Z,969.8200
2022-07-30T09:28:54.970Z,969.8000
2022-07-30T09:29:57.271Z,969.8400
2022-07-30T09:30:59.588Z,969.8000
2022-07-30T09:32:00.011Z,969.8000
2022-07-30T09:33:02.069Z,969.8200
2022-07-30T09:34:04.422Z,969.8000
2022-07-30T09:35:06.706Z,969.7600
2022-07-30T09:36:09.040Z,969.7600
2022-07-30T09:37:12.756Z,969.7200
2022-07-30T09:38:11.528Z,969.7200
2022-07-30T09:39:13.840Z,969.7400
2022-07-30T09:40:16.207Z,969.7800
2022-07-30T09:41:37.818Z,969.7000
2022-07-30T09:42:20.791Z,969.7600
2022-07-30T09:43:24.525Z,969.7600
2022-07-30T09:44:23.332Z,969.7200
2022-07-30T09:45:25.599Z,969.7200
2022-07-30T09:46:27.857Z,969.7200
2022-07-30T09:47:30.060Z,969.7000
2022-07-30T09:48:32.267Z,969.6800
2022-07-30T09:49:34.529Z,969.7200
2022-07-30T09:50:36.760Z,969.6800
2022-07-30T09:51:54.364Z,969.6400
2022-07-30T09:52:39.127Z,969.6400
2022-07-30T09:53:41.384Z,969.6400
2022-07-30T09:54:43.701Z,969.5400
2022-07-30T09:55:45.946Z,969.6600
2022-07-30T09:56:54.078Z,969.6400
2022-07-30T09:57:53.102Z,969.6600
2022-07-30T09:58:52.799Z,969.5400
2022-07-30T09:59:55.075Z,969.5200
2022-07-30T10:02:00.975Z,969.4800
2022-07-30T10:02:59.740Z,969.4800
2022-07-30T10:04:02.035Z,969.5000
2022-07-30T10:05:04.370Z,969.4800
2022-07-30T10:06:06.648Z,969.4600
2022-07-30T10:07:08.966Z,969.5000
2022-07-30T10:08:09.312Z,969.4400
2022-07-30T10:09:13.994Z,969.4200
2022-07-30T10:10:13.779Z,969.4200
2022-07-30T10:11:16.021Z,969.4600
2022-07-30T10:12:18.309Z,969.4600
2022-07-30T10:13:21.095Z,969.4800
2022-07-30T10:14:30.685Z,969.4400
2022-07-30T10:15:23.066Z,969.5200
2022-07-30T10:16:25.333Z,969.4800
2022-07-30T10:17:27.621Z,969.5200
2022-07-30T10:18:29.937Z,969.6200
2022-07-30T10:19:39.877Z,969.5400
2022-07-30T10:20:34.958Z,969.5200
2022-07-30T10:21:35.942Z,969.4800
2022-07-30T10:22:37.753Z,969.4600
2022-07-30T10:23:44.123Z,969.4800
2022-07-30T10:24:39.503Z,969.4800
2022-07-30T10:25:49.642Z,969.4000
2022-07-30T10:26:44.108Z,969.4000
2022-07-30T10:27:46.403Z,969.3800
2022-07-30T10:28:48.670Z,969.4000
2022-07-30T10:29:50.970Z,969.4000
2022-07-30T10:30:51.225Z,969.3800
2022-07-30T10:31:54.444Z,969.3800
2022-07-30T10:32:55.681Z,969.3400
2022-07-30T10:33:57.973Z,969.3400
2022-07-30T10:35:00.253Z,969.3200
2022-07-30T10:36:02.986Z,969.2800
2022-07-30T10:37:06.824Z,969.2800
2022-07-30T10:38:07.026Z,969.2400
2022-07-30T10:39:07.121Z,969.2400
2022-07-30T10:40:09.369Z,969.1900
2022-07-30T10:41:11.757Z,969.1900
2022-07-30T10:42:13.816Z,969.1900
2022-07-30T10:43:16.148Z,969.1900
2022-07-30T10:44:19.565Z,969.2400
2022-07-30T10:45:20.548Z,969.2300
2022-07-30T10:46:23.031Z,969.2100
2022-07-30T10:47:27.386Z,969.1700
2022-07-30T10:48:25.273Z,969.2100
2022-07-30T10:49:27.530Z,969.1700
2022-07-30T10:50:29.811Z,969.1900
2022-07-30T10:51:34.670Z,969.1300
2022-07-30T10:52:34.334Z,969.1700
2022-07-30T10:53:34.451Z,969.2400
2022-07-30T10:54:39.566Z,969.1900
2022-07-30T10:55:39.493Z,969.2300
2022-07-30T10:56:41.398Z,969.2300
2022-07-30T10:57:43.620Z,969.2300
2022-07-30T10:58:47.431Z,969.2400
2022-07-30T11:01:18.506Z,969.2100
2022-07-30T11:02:10.074Z,969.2100
2022-07-30T11:03:15.014Z,969.2400
2022-07-30T11:04:14.301Z,969.2300
2022-07-30T11:05:16.549Z,969.2300
2022-07-30T11:06:24.478Z,969.2300
2022-07-30T11:07:18.938Z,969.2600
2022-07-30T11:08:21.158Z,969.2400
2022-07-30T11:09:23.404Z,969.2800
2022-07-30T11:10:25.654Z,969.2800
2022-07-30T11:11:59.438Z,969.2800
2022-07-30T11:12:30.351Z,969.2400
2022-07-30T11:13:36.176Z,969.2400
2022-07-30T11:14:32.607Z,969.1900
2022-07-30T11:15:34.911Z,969.1900
2022-07-30T11:16:37.321Z,969.2300
2022-07-30T11:17:39.491Z,969.1700
2022-07-30T11:18:41.744Z,969.1500
2022-07-30T11:19:53.251Z,969.1700
2022-07-30T11:20:48.836Z,969.1700
2022-07-30T11:21:46.468Z,969.1500
2022-07-30T11:22:51.123Z,969.1300
2022-07-30T11:23:54.716Z,969.1500
2022-07-30T11:24:53.215Z,969.1300
2022-07-30T11:25:55.455Z,969.1500
2022-07-30T11:26:57.684Z,969.1500
2022-07-30T11:27:59.917Z,969.1100
2022-07-30T11:29:02.145Z,969.1100
2022-07-30T11:30:04.397Z,969.1100
2022-07-30T11:31:10.192Z,969.1500
2022-07-30T11:32:07.042Z,969.1100
2022-07-30T11:33:09.012Z,969.1700
2022-07-30T11:34:11.229Z,969.1700
2022-07-30T11:35:13.505Z,969.2400
2022-07-30T11:36:15.741Z,969.2100
2022-07-30T11:37:22.311Z,969.2400
2022-07-30T11:38:22.396Z,969.2300
2022-07-30T11:39:22.523Z,969.2600
2022-07-30T11:40:26.281Z,969.2300
2022-07-30T11:41:24.846Z,969.2100
2022-07-30T11:42:27.104Z,969.1900
2022-07-30T11:43:34.739Z,969.2100
2022-07-30T11:44:31.637Z,969.1900
2022-07-30T11:45:33.842Z,969.1900
2022-07-30T11:46:36.020Z,969.1700
2022-07-30T11:47:38.245Z,969.1900
2022-07-30T11:48:40.786Z,969.1700
2022-07-30T11:49:42.748Z,969.1500
2022-07-30T11:50:45.003Z,969.1300
2022-07-30T11:51:45.119Z,969.1500
2022-07-30T11:52:47.371Z,969.1500
2022-07-30T11:53:49.663Z,969.1900
2022-07-30T11:54:51.826Z,969.1300
2022-07-30T11:55:54.040Z,969.1100
2022-07-30T11:56:59.553Z,969.1100
2022-07-30T11:57:58.532Z,969.0900
2022-07-30T11:59:00.826Z,969.1100
2022-07-30T12:00:03.064Z,969.1100
2022-07-30T12:01:09.334Z,969.1700
2022-07-30T12:02:07.487Z,969.1500
2022-07-30T12:03:07.529Z,969.1700
2022-07-30T12:04:09.755Z,969.1500
2022-07-30T12:05:11.959Z,969.1700
2022-07-30T12:06:14.188Z,969.1500
2022-07-30T12:07:16.430Z,969.1500
2022-07-30T12:08:35.216Z,969.1300
2022-07-30T12:09:20.983Z,969.1300
2022-07-30T12:10:27.054Z,969.1100
2022-07-30T12:11:25.442Z,969.1100
2022-07-30T12:12:27.695Z,969.1300
2022-07-30T12:13:43.584Z,969.0900
2022-07-30T12:14:30.190Z,969.0700